Home > Products > Valid Products > MTR

000
SAUS44 KLZK 310655
MTRMWT
METAR KMWT 310653Z AUTO 00000KT 6SM BR FEW029 FEW049 BKN085 18/17
A2993 RMK AO2 SLP125 T01830172





000
SAUS44 KLZK 310601
MTRMWT
SPECI KMWT 310600Z AUTO 00000KT 1 1/4SM BR FEW001 OVC120 19/18 A2994
RMK AO2 T01890178





000
SAUS44 KLZK 310554
MTRMWT
METAR KMWT 310553Z AUTO 00000KT 2SM BR FEW001 OVC120 19/18 A2994 RMK
AO2 SLP130 T01890178 10222 20189 402610167 58006





000
SAUS44 KLZK 310340
MTRMWT
SPECI KMWT 310339Z AUTO 00000KT 9SM SCT006 BKN090 19/18 A2996 RMK
AO2 T01890178





000
SAUS44 KLZK 310054
MTRMWT
METAR KMWT 310053Z AUTO 12003KT 10SM BKN110 21/19 A2995 RMK AO2
SLP135 T02110194





000
SAUS44 KLZK 302228
MTRMWT
SPECI KMWT 302227Z AUTO 15009G16KT 110V190 1 1/2SM +RA BR FEW022
BKN050 OVC080 24/22 A2998 RMK AO2 P0001 T02390217





000
SAUS44 KLZK 302054
MTRMWT
METAR KMWT 302053Z AUTO 00000KT 10SM SCT120 26/19 A2999 RMK AO2
SLP145 T02560194 58016





000
SAUS44 KLZK 301905
MTRMWT
SPECI KMWT 301902Z AUTO 00000KT 10SM SCT023 26/20 A3002 RMK AO2
T02560200





000
SAUS44 KLZK 301754
MTRMWT
METAR KMWT 301753Z AUTO 00000KT 10SM FEW028 26/19 A3003 RMK AO2
SLP162 T02560194 10256 20172 56010





000
SAUS44 KLZK 301356 COR
MTRMWT
METAR KMWT 301353Z AUTO 00000KT 10SM SCT055 19/18 A3006 RMK AO2
SLP174 T01940183





000
SAUS44 KLZK 301244
MTRMWT
SPECI KMWT 301243Z AUTO 00000KT 5SM BR SCT004 18/17 A3006 RMK AO2
T01780172





000
SAUS44 KLZK 301154
MTRMWT
METAR KMWT 301153Z AUTO 00000KT 5SM BR CLR 17/17 A3004 RMK AO2
SLP167 70090 T01720167 10194 20167 53012





000
SAUS44 KLZK 300854
MTRMWT
METAR KMWT 300853Z AUTO 00000KT 4SM BR CLR 17/16 A3001 RMK AO2
SLP156 T01720161 58017





000
SAUS44 KLZK 300454
MTRMWT
METAR KMWT 300453Z AUTO 00000KT 9SM CLR 19/18 A3009 RMK AO2 SLP179
T01940178





000
SAUS44 KLZK 292354
MTRMWT
METAR KMWT 292353Z AUTO 00000KT 8SM CLR 21/20 A3005 RMK AO2 SLP169
60090 T02110200 10300 20183 55013





000
SAUS44 KLZK 291903
MTRMWT
SPECI KMWT 291901Z AUTO 00000KT 1SM +RA BR BKN030 OVC075 19/17 A3016
RMK AO2 P0020 T01890167





000
SAUS44 KLZK 291524
MTRMWT
SPECI KMWT 291523Z AUTO 14003KT 10SM SCT026 BKN034 25/21 A3013 RMK
AO2 T02500206





000
SAUS44 KLZK 291354
MTRMWT
METAR KMWT 291353Z AUTO 00000KT 10SM FEW044 23/20 A3012 RMK AO2
SLP190 T02330200





000
SAUS44 KLZK 291057 COR
MTRMWT
METAR KMWT 291053Z AUTO 00000KT 4SM BR CLR 18/17 A3008 RMK AO2
SLP177 T01780167





000
SAUS44 KLZK 290816
MTRMWT
SPECI KMWT 290815Z AUTO 00000KT 3/4SM BR VV002 17/17 A3003 RMK AO2
T01720167





000
SAUS44 KLZK 290748
MTRMWT
SPECI KMWT 290747Z AUTO 00000KT 3SM BR FEW002 17/16 A3004 RMK AO2





000
SAUS44 KLZK 290714
MTRMWT
SPECI KMWT 290713Z AUTO 00000KT 2 1/2SM BR CLR 17/16 A3005 RMK AO2
T01720161





000
SAUS44 KLZK 290659
MTRMWT
SPECI KMWT 290657Z AUTO 00000KT 3SM BR CLR 18/17 A3005 RMK AO2
T01780167





000
SAUS44 KLZK 290652
MTRMWT
SPECI KMWT 290651Z AUTO 00000KT 1 1/2SM BR CLR 18/17 A3005 RMK AO2





000
SAUS44 KLZK 290435
MTRMWT
SPECI KMWT 290433Z AUTO 00000KT 1 1/2SM BR CLR 19/17 A3004 RMK AO2
T01890172





000
SAUS44 KLZK 290054
MTRMWT
METAR KMWT 290053Z AUTO 00000KT 10SM CLR 23/19 A3000 RMK AO2 SLP149
T02330194





000
SAUS44 KLZK 282354
MTRMWT
METAR KMWT 282353Z AUTO VRB04KT 10SM CLR 26/19 A2998 RMK AO2 SLP144
T02560194 10267 20222 55003





000
SAUS44 KLZK 282254
MTRMWT
METAR KMWT 282253Z AUTO VRB06KT 10SM CLR 26/19 A2997 RMK AO2 SLP140
T02610189





000
SAUS44 KLZK 281854
MTRMWT
METAR KMWT 281853Z AUTO VRB04KT 10SM FEW021 BKN026 24/18 A2999 RMK
AO2 SLP149 T02390178





000
SAUS44 KLZK 281754
MTRMWT
METAR KMWT 281753Z AUTO VRB03KT 10SM OVC019 22/18 A3000 RMK AO2
SLP152 T02220178 10228 20183 51018





000
SAUS44 KLZK 281354
MTRMWT
METAR KMWT 281353Z AUTO VRB03KT 10SM OVC016 20/17 A2993 RMK AO2
SLP128 T02000167





000
SAUS44 KLZK 281154
MTRMWT
METAR KMWT 281153Z AUTO 27003KT 10SM CLR 18/16 A2989 RMK AO2 SLP116
T01780161 10183 20167 53014





000
SAUS44 KLZK 280954
MTRMWT
METAR KMWT 280953Z AUTO 00000KT 10SM CLR 17/16 A2986 RMK AO2 SLP106
T01720156





    US Dept of Commerce
    National Oceanic and Atmospheric Administration
    National Weather Service
    1325 East West Highway
    Silver Spring, MD 20910
    Page Author: NWS Internet Services Team
Disclaimer
Information Quality
Credits
Glossary
Privacy Policy
Freedom of Information Act (FOIA)
About Us
Career Opportunities